createdAt,value
2022-09-21T00:00:45.104Z,6.48
2022-09-21T00:03:55.348Z,6.53
2022-09-21T00:06:59.508Z,6.63
2022-09-21T00:10:02.780Z,6.53
2022-09-21T00:13:07.663Z,6.44
2022-09-21T00:16:15.902Z,6.63
2022-09-21T00:19:19.490Z,6.73
2022-09-21T00:22:23.910Z,6.84
2022-09-21T00:25:27.326Z,6.86
2022-09-21T00:28:31.185Z,6.88
2022-09-21T00:31:36.212Z,6.89
2022-09-21T00:34:42.708Z,6.90
2022-09-21T00:37:54.383Z,6.95
2022-09-21T00:40:59.339Z,7.03
2022-09-21T00:44:29.124Z,7.06
2022-09-21T00:47:37.746Z,7.15
2022-09-21T00:50:46.177Z,7.13
2022-09-21T00:53:54.016Z,7.21
2022-09-21T00:57:03.161Z,7.17
2022-09-21T01:00:13.821Z,7.19
2022-09-21T01:03:31.094Z,7.25
2022-09-21T01:06:38.922Z,7.34
2022-09-21T01:09:46.639Z,7.31
2022-09-21T01:13:12.707Z,7.30
2022-09-21T01:16:27.734Z,7.34
2022-09-21T01:20:02.543Z,7.15
2022-09-21T01:23:23.540Z,7.32
2022-09-21T01:26:39.793Z,7.36
2022-09-21T01:29:54.248Z,7.34
2022-09-21T01:33:09.751Z,7.41
2022-09-21T01:36:26.102Z,7.43
2022-09-21T01:39:35.046Z,7.47
2022-09-21T01:42:46.237Z,7.37
2022-09-21T01:49:51.899Z,7.36
2022-09-21T01:53:03.340Z,7.23
2022-09-21T01:56:13.007Z,7.16
2022-09-21T01:59:25.011Z,7.20
2022-09-21T02:02:38.282Z,7.26
2022-09-21T02:05:44.876Z,7.31
2022-09-21T02:08:49.743Z,7.32
2022-09-21T02:11:54.706Z,7.35
2022-09-21T02:15:02.078Z,7.44
2022-09-21T02:18:14.414Z,7.31
2022-09-21T02:21:25.855Z,7.13
2022-09-21T02:24:40.047Z,7.02
2022-09-21T02:27:52.071Z,7.20
2022-09-21T02:31:10.169Z,7.26
2022-09-21T02:34:21.278Z,7.32
2022-09-21T02:37:34.218Z,7.38
2022-09-21T02:40:45.981Z,7.37
2022-09-21T02:43:54.972Z,7.31
2022-09-21T02:47:03.607Z,7.42
2022-09-21T02:50:14.278Z,7.42
2022-09-21T02:53:24.071Z,7.42
2022-09-21T02:56:28.850Z,7.45
2022-09-21T02:59:33.115Z,7.38
2022-09-21T03:02:41.646Z,7.46
2022-09-21T03:05:49.878Z,7.53
2022-09-21T03:08:54.230Z,7.58
2022-09-21T03:11:59.372Z,7.57
2022-09-21T03:15:06.290Z,7.42
2022-09-21T03:18:11.544Z,7.40
2022-09-21T03:21:16.863Z,7.48
2022-09-21T03:24:35.763Z,7.61
2022-09-21T03:27:39.056Z,7.57
2022-09-21T03:30:43.755Z,7.51
2022-09-21T03:33:47.370Z,7.53
2022-09-21T03:36:53.704Z,7.48
2022-09-21T03:39:59.479Z,7.51
2022-09-21T03:43:04.549Z,7.46
2022-09-21T03:46:09.993Z,7.21
2022-09-21T03:49:15.663Z,6.90
2022-09-21T03:52:21.326Z,7.06
2022-09-21T03:55:26.967Z,6.79
2022-09-21T03:58:31.568Z,6.68
2022-09-21T04:01:37.861Z,6.82
2022-09-21T04:04:41.366Z,6.81
2022-09-21T04:07:49.319Z,6.66
2022-09-21T04:10:53.024Z,6.40
2022-09-21T04:13:58.166Z,6.24
2022-09-21T04:17:01.828Z,6.30
2022-09-21T04:20:06.703Z,6.19
2022-09-21T04:23:12.707Z,6.24
2022-09-21T04:26:26.354Z,6.34
2022-09-21T04:29:31.605Z,6.26
2022-09-21T04:32:36.835Z,6.37
2022-09-21T04:35:40.966Z,6.21
2022-09-21T04:38:46.620Z,6.26
2022-09-21T04:41:50.540Z,6.22
2022-09-21T04:44:57.113Z,5.98
2022-09-21T04:48:03.625Z,5.95
2022-09-21T04:51:10.681Z,5.93
2022-09-21T04:54:18.921Z,6.00
2022-09-21T04:57:26.417Z,5.88
2022-09-21T05:00:36.331Z,5.57
2022-09-21T05:03:41.088Z,5.47
2022-09-21T05:06:48.004Z,5.59
2022-09-21T05:10:06.022Z,5.42
2022-09-21T05:13:12.439Z,5.56
2022-09-21T05:16:20.191Z,5.49
2022-09-21T05:19:24.382Z,5.41
2022-09-21T05:22:31.499Z,5.26
2022-09-21T05:25:36.722Z,5.12
2022-09-21T05:28:40.525Z,5.06
2022-09-21T05:31:49.208Z,4.91
2022-09-21T05:35:02.538Z,4.92
2022-09-21T05:38:11.419Z,4.88
2022-09-21T05:41:16.909Z,4.79
2022-09-21T05:44:21.793Z,4.73
2022-09-21T05:47:34.068Z,4.74
2022-09-21T05:50:50.673Z,4.76
2022-09-21T05:54:06.123Z,4.79
2022-09-21T05:57:18.578Z,4.86
2022-09-21T06:00:25.255Z,4.99
2022-09-21T06:03:32.049Z,5.02
2022-09-21T06:06:39.885Z,5.10
2022-09-21T06:09:43.421Z,5.17
2022-09-21T06:12:51.832Z,5.29
2022-09-21T06:15:57.774Z,5.39
2022-09-21T06:19:01.995Z,5.45
2022-09-21T06:22:11.643Z,5.50
2022-09-21T06:25:23.827Z,5.59
2022-09-21T06:28:33.596Z,5.69
2022-09-21T06:31:51.437Z,5.76
2022-09-21T06:34:58.155Z,5.95
2022-09-21T06:38:03.368Z,6.04
2022-09-21T06:41:06.928Z,6.10
2022-09-21T06:44:11.251Z,6.28
2022-09-21T06:47:14.210Z,6.33
2022-09-21T06:50:17.012Z,6.49
2022-09-21T06:53:20.719Z,6.60
2022-09-21T06:56:23.987Z,6.74
2022-09-21T06:59:28.984Z,6.86
2022-09-21T07:02:32.077Z,7.00
2022-09-21T07:05:39.139Z,7.15
2022-09-21T07:12:19.370Z,7.27
2022-09-21T07:15:34.514Z,7.40
2022-09-21T07:18:43.402Z,7.49
2022-09-21T07:22:11.422Z,7.60
2022-09-21T07:25:23.763Z,7.69
2022-09-21T07:28:36.562Z,7.78
2022-09-21T07:31:50.288Z,7.88
2022-09-21T07:34:59.047Z,7.93
2022-09-21T07:38:42.497Z,8.03
2022-09-21T07:42:24.212Z,8.16
2022-09-21T07:45:56.573Z,8.28
2022-09-21T07:49:02.116Z,8.37
2022-09-21T07:52:09.423Z,8.41
2022-09-21T07:55:17.012Z,8.42
2022-09-21T07:58:38.091Z,8.57
2022-09-21T08:01:43.355Z,8.67
2022-09-21T08:04:49.726Z,8.76
2022-09-21T08:07:58.228Z,8.81
2022-09-21T08:11:20.070Z,8.95
2022-09-21T08:14:35.181Z,9.05
2022-09-21T08:17:55.873Z,9.15
2022-09-21T08:21:16.954Z,9.14
2022-09-21T08:24:20.864Z,9.29
2022-09-21T08:27:26.384Z,9.40
2022-09-21T08:30:31.942Z,9.51
2022-09-21T08:33:37.002Z,9.66
2022-09-21T08:36:42.014Z,9.76
2022-09-21T08:39:45.480Z,9.84
2022-09-21T08:42:57.330Z,9.99
2022-09-21T08:46:02.075Z,10.06
2022-09-21T08:49:09.825Z,10.03
2022-09-21T08:52:17.898Z,9.94
2022-09-21T08:55:23.699Z,9.94
2022-09-21T08:58:31.148Z,9.96
2022-09-21T09:01:59.757Z,10.11
2022-09-21T09:05:08.728Z,10.41
2022-09-21T09:08:34.121Z,10.45
2022-09-21T09:11:49.850Z,10.60
2022-09-21T09:15:25.258Z,10.55
2022-09-21T09:18:43.307Z,10.74
2022-09-21T09:21:47.810Z,10.87
2022-09-21T09:24:54.609Z,11.03
2022-09-21T09:28:05.916Z,11.08
2022-09-21T09:31:17.261Z,11.10
2022-09-21T09:34:25.557Z,11.22
2022-09-21T09:37:35.202Z,11.37
2022-09-21T09:41:01.690Z,11.43
2022-09-21T09:44:17.323Z,11.48
2022-09-21T09:47:36.439Z,11.63
2022-09-21T09:50:42.888Z,11.60
2022-09-21T09:53:45.790Z,11.57
2022-09-21T09:56:49.997Z,11.39
2022-09-21T09:59:56.076Z,11.58
2022-09-21T10:02:59.936Z,11.73
2022-09-21T10:06:02.998Z,11.66
2022-09-21T10:09:20.835Z,11.80
2022-09-21T10:12:27.579Z,11.90
2022-09-21T10:15:31.253Z,11.89
2022-09-21T10:18:39.877Z,11.99
2022-09-21T10:21:47.602Z,12.24
2022-09-21T10:24:56.397Z,12.11
2022-09-21T10:28:02.695Z,12.01
2022-09-21T10:31:27.112Z,11.97
2022-09-21T10:34:31.700Z,12.14
2022-09-21T10:37:37.603Z,12.35
2022-09-21T10:40:41.706Z,12.33
2022-09-21T10:43:46.348Z,12.30
2022-09-21T10:46:50.936Z,12.11
2022-09-21T10:49:56.298Z,12.19
2022-09-21T10:53:03.144Z,12.52
2022-09-21T10:56:17.589Z,12.66
2022-09-21T10:59:28.490Z,12.77
2022-09-21T11:02:39.212Z,12.69
2022-09-21T11:05:54.445Z,12.61
2022-09-21T11:09:03.923Z,12.49
2022-09-21T11:12:18.688Z,12.70
2022-09-21T11:15:48.146Z,12.75
2022-09-21T11:18:59.461Z,12.66
2022-09-21T11:22:10.643Z,12.50
2022-09-21T11:25:31.187Z,12.52
2022-09-21T11:28:40.869Z,12.48
2022-09-21T11:32:08.630Z,12.43
2022-09-21T11:35:41.329Z,12.36
2022-09-21T11:38:52.831Z,12.36
2022-09-21T11:42:07.825Z,12.28
2022-09-21T11:45:27.925Z,12.35
2022-09-21T11:48:46.366Z,12.50
2022-09-21T11:52:05.864Z,12.63
2022-09-21T11:55:47.876Z,12.60
2022-09-21T11:58:59.019Z,12.56
2022-09-21T12:02:30.163Z,12.61
2022-09-21T12:05:41.284Z,12.49
2022-09-21T12:09:20.258Z,12.41
2022-09-21T12:12:28.203Z,12.52
2022-09-21T12:15:40.830Z,12.49
2022-09-21T12:18:49.940Z,12.40
2022-09-21T12:21:59.922Z,12.44
2022-09-21T12:25:07.598Z,12.39
2022-09-21T12:28:18.774Z,12.46
2022-09-21T12:31:27.412Z,12.54
2022-09-21T12:34:40.258Z,12.67
2022-09-21T12:37:50.476Z,13.05
2022-09-21T12:40:57.303Z,13.22
2022-09-21T12:44:19.477Z,13.23
2022-09-21T12:47:34.423Z,13.22
2022-09-21T12:50:42.083Z,13.27
2022-09-21T12:53:51.134Z,13.13
2022-09-21T12:57:17.624Z,12.95
2022-09-21T13:00:31.776Z,12.90
2022-09-21T13:03:43.894Z,13.07
2022-09-21T13:07:10.713Z,13.34
2022-09-21T13:10:22.958Z,13.28
2022-09-21T13:13:30.629Z,13.15
2022-09-21T13:16:38.626Z,13.04
2022-09-21T13:19:41.852Z,12.93
2022-09-21T13:22:45.940Z,12.89
2022-09-21T13:25:59.716Z,12.79
2022-09-21T13:29:27.925Z,12.71
2022-09-21T13:32:52.074Z,12.67
2022-09-21T13:36:03.877Z,12.59
2022-09-21T13:39:18.948Z,12.55
2022-09-21T13:42:48.753Z,12.56
2022-09-21T13:46:00.488Z,12.55
2022-09-21T13:49:07.082Z,12.46
2022-09-21T13:52:27.733Z,12.48
2022-09-21T13:55:33.221Z,12.49
2022-09-21T13:58:43.987Z,12.50
2022-09-21T14:01:47.944Z,12.53
2022-09-21T14:04:52.718Z,12.58
2022-09-21T14:07:58.105Z,12.59
2022-09-21T14:11:09.814Z,12.59
2022-09-21T14:14:24.672Z,12.80
2022-09-21T14:17:39.025Z,12.95
2022-09-21T14:21:08.194Z,13.11
2022-09-21T14:24:24.092Z,13.00
2022-09-21T14:27:32.130Z,12.86
2022-09-21T14:30:38.117Z,12.90
2022-09-21T14:33:49.606Z,12.95
2022-09-21T14:36:57.621Z,12.94
2022-09-21T14:40:04.118Z,12.96
2022-09-21T14:43:10.502Z,12.95
2022-09-21T14:46:40.671Z,12.92
2022-09-21T14:50:10.628Z,12.90
2022-09-21T14:53:39.796Z,12.90
2022-09-21T14:56:59.410Z,12.94
2022-09-21T15:00:15.738Z,13.13
2022-09-21T15:03:51.295Z,13.12
2022-09-21T15:07:19.027Z,13.11
2022-09-21T15:10:44.215Z,13.07
2022-09-21T15:14:04.740Z,13.05
2022-09-21T15:17:24.190Z,13.02
2022-09-21T15:20:30.557Z,12.96
2022-09-21T15:23:34.922Z,12.98
2022-09-21T15:26:40.573Z,12.94
2022-09-21T15:29:49.224Z,12.89
2022-09-21T15:32:56.701Z,12.88
2022-09-21T15:36:04.152Z,12.84
2022-09-21T15:39:07.941Z,12.88
2022-09-21T15:42:23.332Z,12.82
2022-09-21T15:45:28.705Z,12.83
2022-09-21T15:48:36.225Z,12.84
2022-09-21T15:51:45.825Z,12.74
2022-09-21T15:54:53.826Z,12.66
2022-09-21T15:57:57.916Z,12.63
2022-09-21T16:01:01.437Z,12.60
2022-09-21T16:04:08.124Z,12.56
2022-09-21T16:07:29.242Z,12.60
2022-09-21T16:10:40.374Z,12.51
2022-09-21T16:14:04.500Z,12.44
2022-09-21T16:17:22.413Z,12.31
2022-09-21T16:20:38.191Z,12.27
2022-09-21T16:23:42.988Z,12.09
2022-09-21T16:26:59.130Z,11.95
2022-09-21T16:30:04.848Z,11.79
2022-09-21T16:33:41.392Z,11.64
2022-09-21T16:36:50.395Z,11.59
2022-09-21T16:39:57.774Z,11.69
2022-09-21T16:43:05.186Z,11.73
2022-09-21T16:46:15.292Z,11.57
2022-09-21T16:49:20.773Z,11.49
2022-09-21T16:52:24.594Z,11.43
2022-09-21T16:55:35.420Z,11.45
2022-09-21T16:58:46.174Z,11.51
2022-09-21T17:01:56.353Z,11.40
2022-09-21T17:05:00.274Z,11.30
2022-09-21T17:08:07.303Z,11.26
2022-09-21T17:11:14.726Z,11.22
2022-09-21T17:14:18.889Z,11.24
2022-09-21T17:17:23.993Z,11.10
2022-09-21T17:20:32.190Z,11.09
2022-09-21T17:23:35.261Z,11.04
2022-09-21T17:26:39.589Z,10.79
2022-09-21T17:29:48.070Z,10.87
2022-09-21T17:32:50.872Z,10.97
2022-09-21T17:35:56.601Z,10.70
2022-09-21T17:38:59.525Z,10.64
2022-09-21T17:42:11.831Z,10.62
2022-09-21T17:45:22.391Z,10.46
2022-09-21T17:48:27.747Z,10.25
2022-09-21T17:51:51.571Z,10.35
2022-09-21T17:54:54.913Z,10.30
2022-09-21T17:58:18.975Z,10.32
2022-09-21T18:01:31.146Z,10.45
2022-09-21T18:04:35.170Z,10.24
2022-09-21T18:07:38.704Z,10.35
2022-09-21T18:10:45.633Z,10.06
2022-09-21T18:14:00.190Z,9.83
2022-09-21T18:17:30.724Z,9.69
2022-09-21T18:20:46.364Z,9.54
2022-09-21T18:24:15.985Z,9.51
2022-09-21T18:27:20.077Z,9.60
2022-09-21T18:30:25.932Z,9.58
2022-09-21T18:33:39.211Z,9.26
2022-09-21T18:36:48.912Z,9.31
2022-09-21T18:40:02.557Z,9.29
2022-09-21T18:43:18.751Z,9.49
2022-09-21T18:46:33.337Z,9.25
2022-09-21T18:49:51.201Z,9.05
2022-09-21T18:53:02.133Z,8.95
2022-09-21T18:56:05.922Z,8.94
2022-09-21T18:59:13.030Z,8.86
2022-09-21T19:02:20.405Z,8.97
2022-09-21T19:05:24.347Z,8.96
2022-09-21T19:08:37.644Z,8.91
2022-09-21T19:11:46.754Z,8.66
2022-09-21T19:15:00.260Z,8.47
2022-09-21T19:18:16.260Z,8.20
2022-09-21T19:21:29.115Z,8.23
2022-09-21T19:24:37.378Z,8.49
2022-09-21T19:27:45.530Z,8.59
2022-09-21T19:30:52.274Z,8.43
2022-09-21T19:33:58.306Z,8.33
2022-09-21T19:37:06.972Z,8.15
2022-09-21T19:40:11.781Z,7.95
2022-09-21T19:43:22.734Z,7.96
2022-09-21T19:46:34.456Z,8.15
2022-09-21T19:49:48.333Z,8.36
2022-09-21T19:52:52.512Z,8.43
2022-09-21T19:56:16.796Z,8.48
2022-09-21T19:59:37.709Z,8.52
2022-09-21T20:02:48.955Z,8.17
2022-09-21T20:05:59.122Z,8.29
2022-09-21T20:09:09.984Z,7.92
2022-09-21T20:12:19.754Z,7.92
2022-09-21T20:15:29.479Z,7.77
2022-09-21T20:18:40.787Z,7.95
2022-09-21T20:21:48.045Z,8.05
2022-09-21T20:24:56.347Z,8.10
2022-09-21T20:28:00.266Z,8.04
2022-09-21T20:31:04.670Z,7.90
2022-09-21T20:34:07.445Z,7.93
2022-09-21T20:37:13.643Z,7.78
2022-09-21T20:40:17.439Z,7.87
2022-09-21T20:43:23.113Z,7.86
2022-09-21T20:46:26.278Z,7.85
2022-09-21T20:49:29.176Z,7.69
2022-09-21T20:52:34.060Z,7.55
2022-09-21T20:55:37.169Z,7.55
2022-09-21T20:58:40.255Z,7.62
2022-09-21T21:01:43.330Z,7.69
2022-09-21T21:04:47.111Z,7.69
2022-09-21T21:07:51.373Z,7.68
2022-09-21T21:10:56.834Z,7.79
2022-09-21T21:13:59.623Z,7.83
2022-09-21T21:17:03.332Z,7.80
2022-09-21T21:20:07.592Z,7.85
2022-09-21T21:23:11.970Z,7.75
2022-09-21T21:26:14.815Z,7.71
2022-09-21T21:29:17.759Z,7.66
2022-09-21T21:32:23.198Z,7.69
2022-09-21T21:35:26.013Z,7.75
2022-09-21T21:38:30.322Z,7.77
2022-09-21T21:41:33.307Z,7.60
2022-09-21T21:44:36.167Z,7.63
2022-09-21T21:47:40.812Z,7.68
2022-09-21T21:50:44.140Z,7.73
2022-09-21T21:53:48.412Z,7.67
2022-09-21T21:56:52.401Z,7.59
2022-09-21T21:59:55.217Z,7.62
2022-09-21T22:02:58.052Z,7.55
2022-09-21T22:06:00.874Z,7.54
2022-09-21T22:09:06.807Z,7.55
2022-09-21T22:12:11.234Z,7.51
2022-09-21T22:15:14.295Z,7.45
2022-09-21T22:18:17.429Z,7.49
2022-09-21T22:21:23.122Z,7.35
2022-09-21T22:24:27.498Z,7.26
2022-09-21T22:27:31.044Z,7.26
2022-09-21T22:30:34.540Z,7.33
2022-09-21T22:33:38.484Z,7.16
2022-09-21T22:36:43.673Z,7.17
2022-09-21T22:39:48.589Z,7.15
2022-09-21T22:42:51.448Z,7.04
2022-09-21T22:45:55.298Z,7.03
2022-09-21T22:48:58.315Z,7.10
2022-09-21T22:52:01.314Z,7.04
2022-09-21T22:55:06.330Z,7.06
2022-09-21T22:58:09.310Z,7.06
2022-09-21T23:01:14.508Z,7.03
2022-09-21T23:04:17.851Z,6.86
2022-09-21T23:07:20.750Z,6.90
2022-09-21T23:10:26.688Z,6.87
2022-09-21T23:13:30.346Z,6.88
2022-09-21T23:16:33.945Z,6.91
2022-09-21T23:19:37.313Z,6.86
2022-09-21T23:22:41.028Z,6.79
2022-09-21T23:25:45.392Z,6.80
2022-09-21T23:28:52.846Z,6.75
2022-09-21T23:31:56.756Z,6.75
2022-09-21T23:35:03.476Z,6.74
2022-09-21T23:38:06.732Z,6.72
2022-09-21T23:41:14.089Z,6.79
2022-09-21T23:44:17.163Z,6.74
2022-09-21T23:47:20.178Z,6.75
2022-09-21T23:50:23.318Z,6.77
2022-09-21T23:53:28.994Z,6.72
2022-09-21T23:56:35.809Z,6.45
2022-09-21T23:59:39.093Z,6.44
